Flight Track Log - Related Links

Times and Time Zones

All times are in EDT time to prevent confusion due to time zone crossing. See the SKW6345 flight status page for this flight to view local times or setup timezone preferences in your user account.

Time Position Orientation Groundspeed Altitude Reporting Facility
EDT Latitude Longitude Course Direction KTS MPH feet Rate Location/Type
Mon 04:55:26 PM 39.7667 -104.6333 166° South 225 259 7,800  Level Denver TRACON
Mon 04:56:20 PM 39.7167 -104.6167 166° South 263 303 9,000 1,588 Climbing Denver TRACON
Mon 04:57:08 PM 39.6542 -104.5872 160° South 276 318 10,500 1,909 Climbing Denver Center
Mon 04:58:10 PM 39.5733 -104.5606 166° South 295 339 12,500 1,935 Climbing Denver Center
Mon 04:59:12 PM 39.4900 -104.5397 169° South 307 353 14,500 1,694 Climbing Denver Center
Mon 05:00:14 PM 39.3878 -104.5169 170° South 353 406 16,000 1,659 Climbing Denver Center
Mon 05:01:15 PM 39.2875 -104.4947 170° South 364 419 17,900 1,707 Climbing Denver Center
Mon 05:02:17 PM 39.1753 -104.4703 170° South 383 441 19,500 1,645 Climbing Denver Center
Mon 05:03:19 PM 39.0678 -104.4417 168° South 375 432 21,300 1,548 Climbing Denver Center
Mon 05:04:21 PM 38.9642 -104.4122 168° South 392 451 22,700 1,235 Climbing Denver Center
Mon 05:05:35 PM 38.8217 -104.3708 167° South 409 471 24,100 1,059 Climbing Denver Center
Mon 05:06:37 PM 38.7094 -104.3397 168° South 427 491 25,100 1,220 Climbing Denver Center
Mon 05:07:38 PM 38.5767 -104.3019 167° South 434 499 26,600 1,220 Climbing Denver Center
Mon 05:08:40 PM 38.4511 -104.2669 168° South 441 507 27,600 968 Climbing Denver Center
Mon 05:09:42 PM 38.3242 -104.2236 165° South 454 522 28,600 1,065 Climbing Denver Center
Mon 05:10:44 PM 38.2061 -104.1742 162° South 464 534 29,800 1,210 Climbing Denver Center
Mon 05:11:46 PM 38.0942 -104.1083 155° Southeast 464 534 31,100 1,366 Climbing Denver Center
Mon 05:12:47 PM 37.9664 -104.0264 153° Southeast 459 528 32,600 1,268 Climbing Denver Center
Mon 05:13:49 PM 37.8614 -103.9500 150° Southeast 454 522 33,700 919 Climbing Denver Center
Mon 05:14:51 PM 37.7411 -103.8500 147° Southeast 460 529 34,500 677 Climbing Denver Center
Mon 05:15:53 PM 37.6378 -103.7572 145° Southeast 467 537 35,100 774 Climbing Denver Center
Mon 05:16:55 PM 37.5353 -103.6631 144° Southeast 470 541 36,100 968 Climbing Denver Center
Mon 05:17:57 PM 37.4358 -103.5286 133° Southeast 468 539 37,100 871 Climbing Denver Center
Mon 05:18:59 PM 37.3508 -103.4144 133° Southeast 465 535 37,900 683 Climbing Denver Center
Mon 05:20:00 PM 37.2531 -103.2822 133° Southeast 462 532 38,500 537 Climbing Denver Center
Mon 05:21:02 PM 37.1694 -103.1689 133° Southeast 462 532 39,000 242 Climbing Denver Center
Mon 05:22:04 PM 37.0997 -103.0744 133° Southeast 463 533 39,000  Level Denver Center
Mon 05:23:16 PM 36.9700 -102.9008 133° Southeast 474 545 39,000  Level Albuquerque Center
Mon 05:24:18 PM 36.8939 -102.7719 126° Southeast 481 554 39,000  Level Albuquerque Center
Mon 05:25:19 PM 36.8000 -102.6250 129° Southeast 484 557 39,000  Level Albuquerque Center
Mon 05:26:21 PM 36.7086 -102.4811 128° Southeast 484 557 39,000  Level Albuquerque Center
Mon 05:27:23 PM 36.6250 -102.3489 128° Southeast 486 559 39,000  Level Albuquerque Center
Mon 05:28:25 PM 36.5414 -102.2197 129° Southeast 483 556 39,000  Level Albuquerque Center
Mon 05:29:27 PM 36.4581 -102.0892 128° Southeast 481 554 39,000  Level Albuquerque Center
Mon 05:30:28 PM 36.3744 -101.9603 129° Southeast 480 552 39,000  Level Albuquerque Center
Mon 05:31:30 PM 36.2908 -101.8319 129° Southeast 479 551 39,000  Level Albuquerque Center
Mon 05:32:32 PM 36.2078 -101.7044 129° Southeast 477 549 39,000 48 Level Albuquerque Center
Mon 05:33:34 PM 36.1250 -101.5758 129° Southeast 476 548 39,100  Climbing Albuquerque Center
Mon 05:34:35 PM 36.0247 -101.4225 129° Southeast 476 548 39,000 -49 Descending Albuquerque Center
Mon 05:35:37 PM 35.9425 -101.2958 129° Southeast 474 545 39,000  Level Albuquerque Center
Mon 05:36:39 PM 35.8600 -101.1711 129° Southeast 469 540 39,000  Level Albuquerque Center
Mon 05:37:41 PM 35.7775 -101.0461 129° Southeast 468 539 39,000  Level Albuquerque Center
Mon 05:38:43 PM 35.6947 -100.9219 129° Southeast 468 539 39,000  Level Albuquerque Center
Mon 05:39:44 PM 35.6133 -100.7972 129° Southeast 466 536 39,000  Level Albuquerque Center
Mon 05:40:46 PM 35.5303 -100.6747 130° Southeast 466 536 39,000  Level Albuquerque Center
Mon 05:41:48 PM 35.4372 -100.5383 130° Southeast 466 536 39,000  Level Albuquerque Center
Mon 05:42:50 PM 35.3553 -100.4156 129° Southeast 466 536 39,000  Level Albuquerque Center
Mon 05:43:52 PM 35.2722 -100.2942 130° Southeast 465 535 39,000  Level Albuquerque Center
Mon 05:44:54 PM 35.1908 -100.1728 129° Southeast 464 534 39,000  Level Albuquerque Center
Mon 05:45:55 PM 35.1089 -100.0522 130° Southeast 463 533 39,000  Level Albuquerque Center
Mon 05:46:57 PM 35.0089 -99.9069 130° Southeast 466 536 39,000  Level Albuquerque Center
Mon 05:47:59 PM 34.9258 -99.7853 130° Southeast 467 537 39,000  Level Albuquerque Center
Mon 05:49:01 PM 34.8400 -99.6617 130° Southeast 474 545 39,000 -238 Level Albuquerque Center
Mon 05:50:05 PM 34.7478 -99.5314 131° Southeast 471 542 38,500 -720 Descending Fort Worth Center
Mon 05:51:06 PM 34.6644 -99.4131 131° Southeast 466 536 37,500 -1,000 Descending Fort Worth Center
Mon 05:52:05 PM 34.5806 -99.2900 130° Southeast 466 536 36,500 -950 Descending Fort Worth Center
Mon 05:53:06 PM 34.4969 -99.1647 129° Southeast 473 544 35,600 -1,091 Descending Fort Worth Center
Mon 05:54:06 PM 34.4006 -99.0394 133° Southeast 467 537 34,300 -1,950 Descending Fort Worth Center
Mon 05:55:06 PM 34.3186 -98.9197 130° Southeast 466 536 31,700 -2,750 Descending Fort Worth Center
Mon 05:56:06 PM 34.2303 -98.7975 131° Southeast 466 536 28,800 -2,924 Descending Fort Worth Center
Mon 05:57:05 PM 34.1419 -98.6708 130° Southeast 466 536 25,900 -2,420 Descending Fort Worth Center
Mon 05:58:05 PM 34.0678 -98.5619 129° Southeast 473 544 24,000 -950 Descending Fort Worth Center
Mon 05:59:05 PM 33.9875 -98.4481 130° Southeast 467 537 24,000  Level Fort Worth Center
Mon 06:00:05 PM 33.9192 -98.3597 133° Southeast 454 522 24,000 -1,300 Level Fort Worth Center
Mon 06:01:05 PM 33.8078 -98.2108 132° Southeast 454 522 21,400 -2,380 Descending Fort Worth Center
Mon 06:02:06 PM 33.7331 -98.1103 132° Southeast 446 513 19,200 -2,100 Descending Fort Worth Center
Mon 06:03:05 PM 33.6458 -98.0147 138° Southeast 433 498 17,200 -2,118 Descending Fort Worth Center
Mon 06:04:05 PM 33.5461 -97.9269 144° Southeast 416 479 15,000 -1,983 Descending Fort Worth Center
Mon 06:05:06 PM 33.4903 -97.8294 124° Southeast 390 449 13,200 -1,900 Descending Fort Worth Center
Mon 06:06:05 PM 33.4258 -97.7194 125° Southeast 372 428 11,200 -1,412 Descending Fort Worth Center
Mon 06:07:05 PM 33.3800 -97.6447 126° Southeast 332 382 10,400 -1,304 Descending Fort Worth Center
Mon 06:08:00 PM 33.3333 -97.5667 126° Southeast 278 320 8,700 -1,817 Descending Dallas / Fort Worth TRACON
Mon 06:08:54 PM 33.2833 -97.5167 140° Southeast 276 318 7,100 -1,632 Descending Dallas / Fort Worth TRACON
Mon 06:09:54 PM 33.2333 -97.4500 132° Southeast 267 307 5,600 -1,050 Descending Dallas / Fort Worth TRACON
Mon 06:10:54 PM 33.1833 -97.3833 132° Southeast 264 304 5,000 -300 Descending Dallas / Fort Worth TRACON
Mon 06:11:54 PM 33.1333 -97.3167 132° Southeast 260 299 5,000  Level Dallas / Fort Worth TRACON
Mon 06:12:54 PM 33.0833 -97.2667 140° Southeast 241 277 5,000 -500 Level Dallas / Fort Worth TRACON
Mon 06:13:54 PM 33.0333 -97.2000 132° Southeast 232 267 4,000 -1,053 Descending Dallas / Fort Worth TRACON
Mon 06:14:48 PM 33.0000 -97.1667 140° Southeast 212 244 3,000 -1,053 Descending Dallas / Fort Worth TRACON
Mon 06:15:48 PM 32.9500 -97.1333 151° Southeast 144 166 2,000 -887 Descending Dallas / Fort Worth TRACON
Mon 06:16:43 PM 32.9333 -97.1000 121° Southeast 124 143 1,300 -396 Descending Dallas / Fort Worth TRACON
Mon 06:19:05 PM 32.8683 -97.0450 145° Southeast 137 158 700 -254 Descending Fort Worth Center

Login

Don't have an account? Register now (free) for customized features, flight alerts, and more!